Time;durP1;ratioP1;P1;durP2;ratioP2;P2;SDS_P1;SDS_P2;PMS_P1;PMS_P2;Temp;Humidity;BMP_temperature;BMP_pressure;BME280_temperature;BME280_humidity;BME280_pressure;Samples;Min_cycle;Max_cycle;Signal;HPM_P1;HPM_P2
2022/08/13 00:00:09;;;;;;;1.60;1.48;;;;;;;;;;5040551;28;20423;-71
2022/08/13 00:02:39;;;;;;;2.17;1.98;;;;;;;;;;5041087;28;20056;-70
2022/08/13 00:05:05;;;;;;;2.97;1.67;;;;;;;;;;5040869;28;20411;-70
2022/08/13 00:07:31;;;;;;;3.63;1.30;;;;;;;;;;5040244;28;20048;-70
2022/08/13 00:09:59;;;;;;;1.77;1.58;;;;;;;;;;5040311;28;20419;-70
2022/08/13 00:15:18;;;;;;;2.17;1.70;;;;;;;;;;5040166;28;20041;-71
2022/08/13 00:17:48;;;;;;;2.22;1.73;;;;;;;;;;5041157;28;20048;-71
2022/08/13 00:20:14;;;;;;;1.80;1.70;;;;;;;;;;5038965;28;20045;-70
2022/08/13 00:22:39;;;;;;;1.70;1.60;;;;;;;;;;5041262;28;20056;-71
2022/08/13 00:25:07;;;;;;;1.70;1.60;;;;;;;;;;5040436;28;20094;-70
2022/08/13 00:27:34;;;;;;;1.83;1.70;;;;;;;;;;5041030;28;20053;-71
2022/08/13 00:29:59;;;;;;;3.05;1.88;;;;;;;;;;5041029;28;20111;-70
2022/08/13 00:32:29;;;;;;;2.03;1.88;;;;;;;;;;5039689;28;20834;-70
2022/08/13 00:34:57;;;;;;;5.72;2.10;;;;;;;;;;5040986;28;20059;-70
2022/08/13 00:37:25;;;;;;;1.80;1.70;;;;;;;;;;5040669;28;20075;-72
2022/08/13 00:39:50;;;;;;;2.25;1.70;;;;;;;;;;5039923;28;20128;-70
2022/08/13 00:42:20;;;;;;;2.03;1.83;;;;;;;;;;5039589;28;20467;-70
2022/08/13 00:44:46;;;;;;;9.35;1.67;;;;;;;;;;5039828;28;20054;-70
2022/08/13 00:49:55;;;;;;;1.90;1.40;;;;;;;;;;5040176;28;20056;-71
2022/08/13 00:52:21;;;;;;;4.70;1.63;;;;;;;;;;5040328;28;20044;-72
2022/08/13 00:54:48;;;;;;;1.85;1.42;;;;;;;;;;5039836;28;20053;-71
2022/08/13 00:57:14;;;;;;;1.65;1.55;;;;;;;;;;5040407;28;20518;-71
2022/08/13 00:59:39;;;;;;;1.60;1.50;;;;;;;;;;5040594;28;20061;-70
2022/08/13 01:02:05;;;;;;;2.85;1.52;;;;;;;;;;5040206;28;20052;-71
2022/08/13 01:04:31;;;;;;;1.33;1.23;;;;;;;;;;5039488;28;20077;-71
2022/08/13 01:06:58;;;;;;;2.63;1.50;;;;;;;;;;5039093;28;20048;-71
2022/08/13 01:09:32;;;;;;;2.15;1.50;;;;;;;;;;5040142;28;20566;-71
2022/08/13 01:11:59;;;;;;;2.45;1.83;;;;;;;;;;5040271;28;20053;-72
2022/08/13 01:14:29;;;;;;;2.40;1.70;;;;;;;;;;5038400;28;20136;-71
2022/08/13 01:16:55;;;;;;;1.95;1.75;;;;;;;;;;5038417;28;20049;-71
2022/08/13 01:19:20;;;;;;;2.17;1.98;;;;;;;;;;5039579;28;20037;-70
2022/08/13 01:21:50;;;;;;;2.92;1.85;;;;;;;;;;5040052;28;20052;-71
2022/08/13 01:24:15;;;;;;;1.98;1.88;;;;;;;;;;5040398;28;20045;-70
2022/08/13 01:26:41;;;;;;;3.83;2.33;;;;;;;;;;5039345;28;20044;-71
2022/08/13 01:29:09;;;;;;;2.45;1.80;;;;;;;;;;5038262;28;20458;-72
2022/08/13 01:31:34;;;;;;;1.90;1.80;;;;;;;;;;5038380;28;20110;-71
2022/08/13 01:34:03;;;;;;;1.90;1.80;;;;;;;;;;5039658;28;20061;-72
2022/08/13 01:36:30;;;;;;;2.40;2.00;;;;;;;;;;5040071;28;20048;-72
2022/08/13 01:39:03;;;;;;;1.85;1.75;;;;;;;;;;5039826;28;20411;-70
2022/08/13 01:41:28;;;;;;;2.05;1.70;;;;;;;;;;5038059;28;20481;-72
2022/08/13 01:44:00;;;;;;;4.80;1.75;;;;;;;;;;5038652;28;20119;-71
2022/08/13 01:46:26;;;;;;;2.78;1.90;;;;;;;;;;5040126;28;20123;-70
2022/08/13 01:51:37;;;;;;;2.30;2.10;;;;;;;;;;5035973;28;20150;-71
2022/08/13 01:54:04;;;;;;;2.35;2.15;;;;;;;;;;5039672;28;20049;-70
2022/08/13 01:56:31;;;;;;;2.30;2.10;;;;;;;;;;5040248;28;20040;-70
2022/08/13 01:59:02;;;;;;;2.03;1.83;;;;;;;;;;5038691;28;20045;-71
2022/08/13 02:01:28;;;;;;;3.95;2.20;;;;;;;;;;5038574;28;20075;-71
2022/08/13 02:03:57;;;;;;;5.07;2.20;;;;;;;;;;5040019;28;20076;-71
2022/08/13 02:06:28;;;;;;;2.72;1.90;;;;;;;;;;5038677;28;20079;-70
2022/08/13 02:08:58;;;;;;;4.25;1.88;;;;;;;;;;5039980;28;20053;-70
2022/08/13 02:11:24;;;;;;;4.70;2.22;;;;;;;;;;5038876;28;20586;-70
2022/08/13 02:13:55;;;;;;;5.32;2.03;;;;;;;;;;5039434;28;20064;-71
2022/08/13 02:16:21;;;;;;;3.17;1.90;;;;;;;;;;5039358;28;20432;-71
2022/08/13 02:18:47;;;;;;;3.08;2.17;;;;;;;;;;5038468;28;20032;-70
2022/08/13 02:21:13;;;;;;;3.30;1.90;;;;;;;;;;5038179;28;20072;-71
2022/08/13 02:23:38;;;;;;;2.47;2.28;;;;;;;;;;5039609;28;20148;-71
2022/08/13 02:26:08;;;;;;;2.10;1.90;;;;;;;;;;5040283;28;20060;-70
2022/08/13 02:28:39;;;;;;;3.75;1.88;;;;;;;;;;5043498;28;20527;-71
2022/08/13 02:31:05;;;;;;;2.83;1.85;;;;;;;;;;5024319;28;20043;-70
2022/08/13 02:33:30;;;;;;;2.67;2.08;;;;;;;;;;5040520;28;20471;-71
2022/08/13 02:35:57;;;;;;;2.40;2.00;;;;;;;;;;5043312;28;20056;-70
2022/08/13 02:38:23;;;;;;;2.95;2.17;;;;;;;;;;5043283;28;20578;-71
2022/08/13 02:43:33;;;;;;;2.40;2.20;;;;;;;;;;5040077;28;20065;-70
2022/08/13 02:46:00;;;;;;;2.08;1.98;;;;;;;;;;5042615;28;20134;-70
2022/08/13 02:48:26;;;;;;;2.75;2.33;;;;;;;;;;5043208;28;20049;-70
2022/08/13 02:50:55;;;;;;;2.72;2.53;;;;;;;;;;5042463;28;20045;-70
2022/08/13 02:53:21;;;;;;;3.22;2.70;;;;;;;;;;5040641;28;20198;-71
2022/08/13 02:55:49;;;;;;;2.72;2.03;;;;;;;;;;5042882;28;20479;-70
2022/08/13 02:58:16;;;;;;;3.08;2.53;;;;;;;;;;5041544;28;20064;-70
2022/08/13 03:00:48;;;;;;;2.88;2.47;;;;;;;;;;5040655;28;20037;-70
2022/08/13 03:03:15;;;;;;;3.42;2.42;;;;;;;;;;5041969;28;20423;-71
2022/08/13 03:05:41;;;;;;;2.88;2.42;;;;;;;;;;5041653;28;20081;-70
2022/08/13 03:08:07;;;;;;;3.03;2.35;;;;;;;;;;5042507;28;20115;-69
2022/08/13 03:10:32;;;;;;;2.50;2.30;;;;;;;;;;5042455;28;20574;-70
2022/08/13 03:13:08;;;;;;;2.70;2.40;;;;;;;;;;5042236;28;20107;-70
2022/08/13 03:15:35;;;;;;;2.72;2.53;;;;;;;;;;5042149;28;20048;-70
2022/08/13 03:18:01;;;;;;;5.55;2.75;;;;;;;;;;5040369;28;20560;-69
2022/08/13 03:20:27;;;;;;;3.20;2.53;;;;;;;;;;5042553;28;20040;-70
2022/08/13 03:23:01;;;;;;;2.00;1.90;;;;;;;;;;5042164;28;20057;-69
2022/08/13 03:25:28;;;;;;;2.40;2.20;;;;;;;;;;5041972;28;20068;-70
2022/08/13 03:27:54;;;;;;;2.42;2.17;;;;;;;;;;5041138;28;20087;-69
2022/08/13 03:30:22;;;;;;;2.65;2.30;;;;;;;;;;5041702;28;20044;-70
2022/08/13 03:32:49;;;;;;;2.63;2.25;;;;;;;;;;5042150;28;20110;-70
2022/08/13 03:35:18;;;;;;;2.65;2.45;;;;;;;;;;5040951;28;20458;-69
2022/08/13 03:37:48;;;;;;;3.22;2.60;;;;;;;;;;5040858;28;20135;-70
2022/08/13 03:40:15;;;;;;;6.85;2.38;;;;;;;;;;5041023;28;20044;-70
2022/08/13 03:42:46;;;;;;;2.80;2.60;;;;;;;;;;5041751;28;20049;-71
2022/08/13 03:45:11;;;;;;;4.30;2.67;;;;;;;;;;5039045;28;20053;-70
2022/08/13 03:47:39;;;;;;;2.88;2.58;;;;;;;;;;5041549;28;20060;-70
2022/08/13 03:50:06;;;;;;;3.20;2.50;;;;;;;;;;5038363;28;20499;-71
2022/08/13 03:52:33;;;;;;;2.70;2.50;;;;;;;;;;5039650;28;20052;-70
2022/08/13 03:54:59;;;;;;;3.38;2.72;;;;;;;;;;5041287;28;20052;-70
2022/08/13 03:57:24;;;;;;;2.58;2.38;;;;;;;;;;5040678;28;20084;-70
2022/08/13 03:59:50;;;;;;;3.20;2.58;;;;;;;;;;5041400;28;20107;-70
2022/08/13 04:02:16;;;;;;;2.80;2.60;;;;;;;;;;5037362;28;20415;-70
2022/08/13 04:04:46;;;;;;;3.78;2.38;;;;;;;;;;5039368;28;20049;-71
2022/08/13 04:07:15;;;;;;;2.92;2.33;;;;;;;;;;5041024;28;20052;-70
2022/08/13 04:09:42;;;;;;;8.07;2.50;;;;;;;;;;5040823;28;20044;-70
2022/08/13 04:12:12;;;;;;;3.25;2.83;;;;;;;;;;5040040;28;20095;-70
2022/08/13 04:14:44;;;;;;;4.53;2.70;;;;;;;;;;5041019;28;20865;-69
2022/08/13 04:17:13;;;;;;;;;;;;;;;;;;5039850;28;20356;-70
2022/08/13 04:19:39;;;;;;;3.03;2.20;;;;;;;;;;5040673;28;19921;-69
2022/08/13 04:22:06;;;;;;;3.40;2.50;;;;;;;;;;5040740;28;20079;-70
2022/08/13 04:24:33;;;;;;;2.65;2.30;;;;;;;;;;5040008;28;20064;-70
2022/08/13 04:26:59;;;;;;;2.85;2.58;;;;;;;;;;5039223;28;20060;-70
2022/08/13 04:29:25;;;;;;;3.53;3.08;;;;;;;;;;5040031;28;20063;-70
2022/08/13 04:31:50;;;;;;;3.08;2.78;;;;;;;;;;5040270;28;20061;-70
2022/08/13 04:34:19;;;;;;;3.35;2.95;;;;;;;;;;5039617;28;20053;-70
2022/08/13 04:36:45;;;;;;;4.07;2.90;;;;;;;;;;5040531;28;20044;-70
2022/08/13 04:39:10;;;;;;;3.53;3.22;;;;;;;;;;5039803;28;20041;-70
2022/08/13 04:41:36;;;;;;;3.47;3.15;;;;;;;;;;5039843;28;20729;-70
2022/08/13 04:44:01;;;;;;;3.00;2.70;;;;;;;;;;5040015;28;20052;-70
2022/08/13 04:46:27;;;;;;;5.22;2.60;;;;;;;;;;5039422;28;20507;-69
2022/08/13 04:48:53;;;;;;;5.15;2.80;;;;;;;;;;5040072;28;20049;-71
2022/08/13 04:51:19;;;;;;;3.95;2.40;;;;;;;;;;5038789;28;20072;-71
2022/08/13 04:53:44;;;;;;;2.60;2.40;;;;;;;;;;5039887;28;20120;-69
2022/08/13 04:56:10;;;;;;;3.30;2.33;;;;;;;;;;5039269;28;20048;-70
2022/08/13 04:58:36;;;;;;;4.38;2.53;;;;;;;;;;5040637;28;20056;-70
2022/08/13 05:01:09;;;;;;;2.72;2.30;;;;;;;;;;5039383;28;20033;-70
2022/08/13 05:03:38;;;;;;;2.78;2.50;;;;;;;;;;5039453;28;20048;-71
2022/08/13 05:06:05;;;;;;;3.95;2.42;;;;;;;;;;5039934;28;20403;-70
2022/08/13 05:08:31;;;;;;;2.80;2.60;;;;;;;;;;5039704;28;20045;-69
2022/08/13 05:10:57;;;;;;;4.88;3.00;;;;;;;;;;5040047;28;20060;-69
2022/08/13 05:13:23;;;;;;;3.03;2.83;;;;;;;;;;5039189;28;20052;-70
2022/08/13 05:15:48;;;;;;;3.30;3.00;;;;;;;;;;5039971;28;20524;-70
2022/08/13 05:18:15;;;;;;;3.10;2.80;;;;;;;;;;5037589;28;20041;-70
2022/08/13 05:20:41;;;;;;;4.00;2.67;;;;;;;;;;5039902;28;20048;-69
2022/08/13 05:23:08;;;;;;;2.63;2.42;;;;;;;;;;5037611;28;20407;-71
2022/08/13 05:25:34;;;;;;;2.53;2.20;;;;;;;;;;5039461;28;20111;-70
2022/08/13 05:27:59;;;;;;;2.50;2.30;;;;;;;;;;5039651;28;20053;-70
2022/08/13 05:30:27;;;;;;;4.60;2.15;;;;;;;;;;5038878;28;20056;-70
2022/08/13 05:32:57;;;;;;;3.42;2.22;;;;;;;;;;5038321;28;20049;-70
2022/08/13 05:35:26;;;;;;;2.97;2.15;;;;;;;;;;5038804;28;20652;-71
2022/08/13 05:37:53;;;;;;;2.33;2.13;;;;;;;;;;5038615;28;20044;-71
2022/08/13 05:40:18;;;;;;;2.00;1.90;;;;;;;;;;5038893;28;20037;-70
2022/08/13 05:42:44;;;;;;;2.40;2.20;;;;;;;;;;5039453;28;20049;-71
2022/08/13 05:45:10;;;;;;;2.33;2.13;;;;;;;;;;5039084;28;20048;-70
2022/08/13 05:47:36;;;;;;;5.38;2.10;;;;;;;;;;5039434;28;20186;-70
2022/08/13 05:50:08;;;;;;;1.90;1.80;;;;;;;;;;5038308;28;20041;-72
2022/08/13 05:52:34;;;;;;;3.80;1.90;;;;;;;;;;5039280;28;20159;-70
2022/08/13 05:55:00;;;;;;;3.30;2.00;;;;;;;;;;5038997;28;20076;-71
2022/08/13 05:57:25;;;;;;;1.80;1.70;;;;;;;;;;5038547;28;20207;-71
2022/08/13 06:05:22;;;;;;;1.75;1.65;;;;;;;;;;5042279;28;20103;-71
2022/08/13 06:07:48;;;;;;;2.20;2.00;;;;;;;;;;5043085;28;20083;-70
2022/08/13 06:10:14;;;;;;;2.03;1.83;;;;;;;;;;5042888;28;20139;-70
2022/08/13 06:12:42;;;;;;;6.72;2.17;;;;;;;;;;5042271;28;20717;-70
2022/08/13 06:15:10;;;;;;;3.20;2.20;;;;;;;;;;5040126;28;20037;-70
2022/08/13 06:17:37;;;;;;;3.15;2.17;;;;;;;;;;5042703;28;20044;-70
2022/08/13 06:20:04;;;;;;;4.40;2.00;;;;;;;;;;5043002;28;20059;-71
2022/08/13 06:22:33;;;;;;;3.25;2.17;;;;;;;;;;5039687;28;20673;-70
2022/08/13 06:25:04;;;;;;;4.68;2.10;;;;;;;;;;5040720;28;20519;-71
2022/08/13 06:27:29;;;;;;;2.28;2.08;;;;;;;;;;5041621;28;20048;-70
2022/08/13 06:29:58;;;;;;;2.35;2.15;;;;;;;;;;5041789;28;20049;-70
2022/08/13 06:32:24;;;;;;;2.00;1.90;;;;;;;;;;5042074;28;20080;-70
2022/08/13 06:34:51;;;;;;;3.38;1.80;;;;;;;;;;5040184;28;20037;-70
2022/08/13 06:37:17;;;;;;;4.35;2.00;;;;;;;;;;5037334;28;20052;-71
2022/08/13 06:39:44;;;;;;;2.17;2.08;;;;;;;;;;5039118;28;20064;-70
2022/08/13 06:42:10;;;;;;;1.90;1.80;;;;;;;;;;5038538;28;20517;-71
2022/08/13 06:44:39;;;;;;;2.00;1.88;;;;;;;;;;5036897;28;20071;-69
2022/08/13 06:47:05;;;;;;;3.58;2.03;;;;;;;;;;5041362;28;20578;-70
2022/08/13 06:49:33;;;;;;;2.00;1.80;;;;;;;;;;5039743;28;20064;-70
2022/08/13 06:52:00;;;;;;;1.70;1.60;;;;;;;;;;5041632;28;20586;-70
2022/08/13 06:54:26;;;;;;;4.00;1.60;;;;;;;;;;5042652;28;20044;-71
2022/08/13 06:56:53;;;;;;;3.17;1.60;;;;;;;;;;5041357;28;20507;-69
2022/08/13 06:59:21;;;;;;;5.28;1.90;;;;;;;;;;5041584;28;20407;-70
2022/08/13 07:01:47;;;;;;;4.70;1.65;;;;;;;;;;5041245;28;20045;-69
2022/08/13 07:04:21;;;;;;;1.50;1.40;;;;;;;;;;5039352;28;20068;-70
2022/08/13 07:06:50;;;;;;;1.35;1.27;;;;;;;;;;5039134;28;20045;-70
2022/08/13 07:09:19;;;;;;;2.88;1.63;;;;;;;;;;5039512;28;20052;-69
2022/08/13 07:11:45;;;;;;;3.72;1.30;;;;;;;;;;5039551;28;20045;-71
2022/08/13 07:14:13;;;;;;;2.38;1.50;;;;;;;;;;5038148;28;20081;-70
2022/08/13 07:16:41;;;;;;;2.08;1.60;;;;;;;;;;5039881;28;20502;-70
2022/08/13 07:19:07;;;;;;;1.55;1.45;;;;;;;;;;5040524;28;20048;-74
2022/08/13 07:21:33;;;;;;;3.03;1.40;;;;;;;;;;5040291;28;20045;-70
2022/08/13 07:24:02;;;;;;;3.22;1.70;;;;;;;;;;5041728;28;20528;-71
2022/08/13 07:26:32;;;;;;;1.60;1.50;;;;;;;;;;5041402;28;20120;-70
2022/08/13 07:28:57;;;;;;;3.90;1.48;;;;;;;;;;5023146;28;20052;-71
2022/08/13 07:31:28;;;;;;;1.80;1.55;;;;;;;;;;5037618;28;20053;-76
2022/08/13 07:33:55;;;;;;;1.98;1.40;;;;;;;;;;5036406;28;20041;-72
2022/08/13 07:36:24;;;;;;;1.95;1.60;;;;;;;;;;5041410;28;20092;-73
2022/08/13 07:38:49;;;;;;;2.45;1.42;;;;;;;;;;5039479;28;20287;-73
2022/08/13 07:41:15;;;;;;;1.92;1.48;;;;;;;;;;5040219;28;20755;-72
2022/08/13 07:43:43;;;;;;;1.40;1.30;;;;;;;;;;5040857;28;20045;-73
2022/08/13 07:46:12;;;;;;;2.35;1.40;;;;;;;;;;5056720;28;20052;-71
2022/08/13 07:48:40;;;;;;;1.45;1.35;;;;;;;;;;5041956;28;21106;-73
2022/08/13 07:51:18;;;;;;;3.85;1.30;;;;;;;;;;5040407;28;20041;-73
2022/08/13 07:53:44;;;;;;;1.75;1.50;;;;;;;;;;5040297;28;20049;-73
2022/08/13 07:56:10;;;;;;;2.20;1.48;;;;;;;;;;5040599;28;20036;-72
2022/08/13 07:58:36;;;;;;;1.95;1.40;;;;;;;;;;5041578;28;20060;-70
2022/08/13 08:01:04;;;;;;;6.18;1.40;;;;;;;;;;5041434;28;20144;-72
2022/08/13 08:03:40;;;;;;;3.03;1.35;;;;;;;;;;5040013;28;20084;-71
2022/08/13 08:06:09;;;;;;;1.27;1.17;;;;;;;;;;5041255;28;20136;-73
2022/08/13 08:08:35;;;;;;;1.38;1.27;;;;;;;;;;5039730;28;20045;-72
2022/08/13 08:11:01;;;;;;;2.35;1.20;;;;;;;;;;5036268;28;20077;-73
2022/08/13 08:13:29;;;;;;;1.65;1.30;;;;;;;;;;5039151;28;20447;-73
2022/08/13 08:15:56;;;;;;;4.63;1.40;;;;;;;;;;5040335;28;20131;-73
2022/08/13 08:18:22;;;;;;;4.55;1.30;;;;;;;;;;5038458;28;20700;-73
2022/08/13 08:20:48;;;;;;;1.60;1.50;;;;;;;;;;5038353;28;20044;-73
2022/08/13 08:23:16;;;;;;;1.27;1.17;;;;;;;;;;5040052;28;20407;-73
2022/08/13 08:25:43;;;;;;;2.22;1.08;;;;;;;;;;5040258;28;20063;-73
2022/08/13 08:28:11;;;;;;;2.83;1.52;;;;;;;;;;5041142;28;20090;-73
2022/08/13 08:30:37;;;;;;;1.25;1.15;;;;;;;;;;5039192;28;20036;-70
2022/08/13 08:33:04;;;;;;;1.42;1.33;;;;;;;;;;5042345;28;20105;-73
2022/08/13 08:35:30;;;;;;;1.25;1.15;;;;;;;;;;5039522;28;20055;-73
2022/08/13 08:43:31;;;;;;;1.25;1.15;;;;;;;;;;5055139;28;20427;-73
2022/08/13 08:45:57;;;;;;;2.22;1.15;;;;;;;;;;5040785;28;20045;-72
2022/08/13 08:48:23;;;;;;;1.58;1.48;;;;;;;;;;5040168;28;20453;-73
2022/08/13 08:50:49;;;;;;;2.78;1.50;;;;;;;;;;5040439;28;20210;-73
2022/08/13 08:53:19;;;;;;;3.03;1.20;;;;;;;;;;5038714;28;20048;-73
2022/08/13 08:55:46;;;;;;;2.25;1.42;;;;;;;;;;5038885;28;20041;-72
2022/08/13 08:58:12;;;;;;;1.40;1.30;;;;;;;;;;5039513;28;20056;-73
2022/08/13 09:00:39;;;;;;;7.45;1.60;;;;;;;;;;5039226;28;20132;-73
2022/08/13 09:03:07;;;;;;;1.27;1.02;;;;;;;;;;5039785;28;20041;-72
2022/08/13 09:05:33;;;;;;;2.25;1.20;;;;;;;;;;5039826;28;20056;-73
2022/08/13 09:08:06;;;;;;;1.40;1.30;;;;;;;;;;5038383;28;20087;-73
2022/08/13 09:10:35;;;;;;;1.63;1.25;;;;;;;;;;5039228;28;20581;-73
2022/08/13 09:13:02;;;;;;;1.30;1.20;;;;;;;;;;5039105;28;20053;-73
2022/08/13 09:15:30;;;;;;;2.55;1.30;;;;;;;;;;5039256;28;20061;-73
2022/08/13 09:17:57;;;;;;;2.25;1.10;;;;;;;;;;5038755;28;20053;-74
2022/08/13 09:20:24;;;;;;;1.20;1.15;;;;;;;;;;5038509;28;20037;-76
2022/08/13 09:23:08;;;;;;;1.25;1.13;;;;;;;;;;5038796;28;20102;-73
2022/08/13 09:25:35;;;;;;;3.85;1.30;;;;;;;;;;5039657;28;20509;-73
2022/08/13 09:28:03;;;;;;;1.23;1.13;;;;;;;;;;5040534;28;20084;-74
2022/08/13 09:30:30;;;;;;;4.63;1.55;;;;;;;;;;5038933;28;20060;-74
2022/08/13 09:32:58;;;;;;;2.70;1.50;;;;;;;;;;5038155;28;20044;-73
2022/08/13 09:35:25;;;;;;;2.65;1.55;;;;;;;;;;5038140;28;20037;-73
2022/08/13 09:37:56;;;;;;;1.52;1.38;;;;;;;;;;5040072;28;20040;-72
2022/08/13 09:40:28;;;;;;;2.05;1.60;;;;;;;;;;5040547;28;20072;-73
2022/08/13 09:43:28;;;;;;;2.95;1.60;;;;;;;;;;5041796;28;21032;-74
2022/08/13 09:45:59;;;;;;;2.58;1.38;;;;;;;;;;4996513;28;20052;-73
2022/08/13 09:48:28;;;;;;;1.90;1.42;;;;;;;;;;5033624;28;20122;-73
2022/08/13 09:50:54;;;;;;;1.27;1.20;;;;;;;;;;5036303;28;20049;-73
2022/08/13 09:53:19;;;;;;;3.72;1.40;;;;;;;;;;5033334;28;20087;-73
2022/08/13 09:56:17;;;;;;;1.83;1.42;;;;;;;;;;5038938;28;20041;-74
2022/08/13 09:58:50;;;;;;;2.35;1.42;;;;;;;;;;5025158;28;20053;-74
2022/08/13 10:01:19;;;;;;;1.73;1.58;;;;;;;;;;5034465;28;20521;-74
2022/08/13 10:03:48;;;;;;;3.15;1.60;;;;;;;;;;5035723;28;20049;-73
2022/08/13 10:06:18;;;;;;;3.83;1.40;;;;;;;;;;5036321;28;20278;-74
2022/08/13 10:08:47;;;;;;;2.75;1.40;;;;;;;;;;5036288;28;20048;-75
2022/08/13 10:11:15;;;;;;;4.90;1.80;;;;;;;;;;5035636;28;20415;-75
2022/08/13 10:13:41;;;;;;;2.55;1.67;;;;;;;;;;5036151;28;20053;-75
2022/08/13 10:16:07;;;;;;;5.13;1.60;;;;;;;;;;5036001;28;20044;-74
2022/08/13 10:18:32;;;;;;;3.10;1.73;;;;;;;;;;5039390;28;20102;-73
2022/08/13 10:20:58;;;;;;;1.95;1.70;;;;;;;;;;5039619;28;20041;-74
2022/08/13 10:23:24;;;;;;;3.33;1.83;;;;;;;;;;5038694;28;20106;-74
2022/08/13 10:25:52;;;;;;;2.95;1.65;;;;;;;;;;5038857;28;20095;-74
2022/08/13 10:28:31;;;;;;;5.13;1.60;;;;;;;;;;5040059;28;20048;-74
2022/08/13 10:30:57;;;;;;;4.18;1.67;;;;;;;;;;5038049;28;20033;-74
2022/08/13 10:33:23;;;;;;;1.63;1.52;;;;;;;;;;5037233;28;20043;-74
2022/08/13 10:35:52;;;;;;;1.83;1.60;;;;;;;;;;5039685;28;20389;-74
2022/08/13 10:38:21;;;;;;;5.57;1.70;;;;;;;;;;5037980;28;20531;-74
2022/08/13 10:40:47;;;;;;;3.50;1.80;;;;;;;;;;5039517;28;20040;-73
2022/08/13 10:43:13;;;;;;;3.25;1.60;;;;;;;;;;5039087;28;20628;-75
2022/08/13 10:45:41;;;;;;;1.98;1.65;;;;;;;;;;5038973;28;20045;-73
2022/08/13 10:48:11;;;;;;;2.08;1.40;;;;;;;;;;5040946;28;20490;-74
2022/08/13 10:50:37;;;;;;;2.20;1.73;;;;;;;;;;5039504;28;20063;-75
2022/08/13 10:53:03;;;;;;;5.55;1.65;;;;;;;;;;5040220;28;20052;-74
2022/08/13 10:55:29;;;;;;;2.22;1.80;;;;;;;;;;5034010;28;20049;-75
2022/08/13 10:57:55;;;;;;;5.38;1.52;;;;;;;;;;5035567;28;20589;-75
2022/08/13 11:00:21;;;;;;;1.80;1.58;;;;;;;;;;5036078;28;20041;-74
2022/08/13 11:02:49;;;;;;;3.65;1.70;;;;;;;;;;5035635;28;20056;-75
2022/08/13 11:05:16;;;;;;;5.60;1.70;;;;;;;;;;5035158;28;20074;-74
2022/08/13 11:07:45;;;;;;;6.85;1.77;;;;;;;;;;5036685;28;20049;-75
2022/08/13 11:10:11;;;;;;;7.10;1.90;;;;;;;;;;5036964;28;20048;-74
2022/08/13 11:12:37;;;;;;;13.35;1.85;;;;;;;;;;5036000;28;20053;-74
2022/08/13 11:15:06;;;;;;;5.03;1.48;;;;;;;;;;5037255;28;20045;-72
2022/08/13 11:17:35;;;;;;;8.13;1.75;;;;;;;;;;5035087;28;20044;-74
2022/08/13 11:20:04;;;;;;;4.05;1.45;;;;;;;;;;5039056;28;20118;-74
2022/08/13 11:22:30;;;;;;;2.95;1.60;;;;;;;;;;5037476;28;20041;-74
2022/08/13 11:24:57;;;;;;;3.33;1.67;;;;;;;;;;5038598;28;20225;-75
2022/08/13 11:27:23;;;;;;;1.42;1.33;;;;;;;;;;5040464;28;20052;-72
2022/08/13 11:29:49;;;;;;;6.93;1.77;;;;;;;;;;5040143;28;20057;-74
2022/08/13 11:32:14;;;;;;;2.00;1.60;;;;;;;;;;5038975;28;20134;-72
2022/08/13 11:34:40;;;;;;;1.83;1.60;;;;;;;;;;5039932;28;20045;-71
2022/08/13 11:37:05;;;;;;;4.20;1.52;;;;;;;;;;5039244;28;20053;-73
2022/08/13 11:39:30;;;;;;;1.73;1.55;;;;;;;;;;5034844;28;20098;-74
2022/08/13 11:41:56;;;;;;;5.78;2.05;;;;;;;;;;5035450;28;20048;-75
2022/08/13 11:44:22;;;;;;;2.95;1.50;;;;;;;;;;5036404;28;20061;-74
2022/08/13 11:46:47;;;;;;;2.15;1.70;;;;;;;;;;5035296;28;21117;-76
2022/08/13 11:49:13;;;;;;;2.53;1.98;;;;;;;;;;5038016;28;20144;-75
2022/08/13 11:51:38;;;;;;;2.20;2.00;;;;;;;;;;5040680;28;20118;-74
2022/08/13 11:54:04;;;;;;;2.20;1.95;;;;;;;;;;5040676;28;20494;-74
2022/08/13 11:56:29;;;;;;;1.92;1.75;;;;;;;;;;5041925;28;20056;-74
2022/08/13 11:58:55;;;;;;;4.03;1.45;;;;;;;;;;5041116;28;20072;-72
2022/08/13 12:01:22;;;;;;;2.92;1.40;;;;;;;;;;5039750;28;20033;-76
2022/08/13 12:03:48;;;;;;;1.50;1.40;;;;;;;;;;5040514;28;20094;-76
2022/08/13 12:06:14;;;;;;;5.00;1.60;;;;;;;;;;5040722;28;20045;-75
2022/08/13 12:08:40;;;;;;;1.73;1.60;;;;;;;;;;5040607;28;20049;-76
2022/08/13 12:11:22;;;;;;;1.63;1.30;;;;;;;;;;5054364;28;20052;-75
2022/08/13 12:13:48;;;;;;;4.50;1.50;;;;;;;;;;5022660;28;20068;-75
2022/08/13 12:16:14;;;;;;;8.50;1.50;;;;;;;;;;5040945;28;20117;-76
2022/08/13 12:18:39;;;;;;;4.45;1.40;;;;;;;;;;5040241;28;20048;-75
2022/08/13 12:21:05;;;;;;;1.63;1.50;;;;;;;;;;5041153;28;20442;-75
2022/08/13 12:23:30;;;;;;;1.98;1.52;;;;;;;;;;5039090;28;20474;-75
2022/08/13 12:25:56;;;;;;;1.90;1.40;;;;;;;;;;5039173;28;20146;-75
2022/08/13 12:28:24;;;;;;;2.35;1.33;;;;;;;;;;5023449;28;20049;-75
2022/08/13 12:30:57;;;;;;;2.92;1.60;;;;;;;;;;5041097;28;20106;-76
2022/08/13 12:33:23;;;;;;;2.75;1.05;;;;;;;;;;5039156;28;20053;-76
2022/08/13 12:35:50;;;;;;;1.13;1.02;;;;;;;;;;5040875;28;20514;-75
2022/08/13 12:38:15;;;;;;;3.22;1.52;;;;;;;;;;5022420;28;20561;-75
2022/08/13 12:40:44;;;;;;;3.38;1.30;;;;;;;;;;5039454;28;20127;-74
2022/08/13 12:43:09;;;;;;;2.25;1.40;;;;;;;;;;5039045;28;20052;-75
2022/08/13 12:45:36;;;;;;;1.90;1.38;;;;;;;;;;5038717;28;20057;-73
2022/08/13 12:48:06;;;;;;;3.95;1.50;;;;;;;;;;5039937;28;20079;-75
2022/08/13 12:50:32;;;;;;;7.93;1.52;;;;;;;;;;5022594;28;20793;-74
2022/08/13 12:52:58;;;;;;;1.40;1.30;;;;;;;;;;5035846;28;20063;-74
2022/08/13 12:55:23;;;;;;;4.57;1.20;;;;;;;;;;5037076;28;20048;-76
2022/08/13 12:57:50;;;;;;;1.35;1.25;;;;;;;;;;5037028;28;20069;-74
2022/08/13 13:00:18;;;;;;;1.52;1.25;;;;;;;;;;5038384;28;20049;-76
2022/08/13 13:02:44;;;;;;;2.30;1.38;;;;;;;;;;5036719;28;20044;-75
2022/08/13 13:05:09;;;;;;;2.70;1.58;;;;;;;;;;5020266;28;20048;-76
2022/08/13 13:07:35;;;;;;;7.00;1.60;;;;;;;;;;5038192;28;20041;-73
2022/08/13 13:10:02;;;;;;;2.67;1.27;;;;;;;;;;5037690;28;20098;-73
2022/08/13 13:12:30;;;;;;;2.08;1.48;;;;;;;;;;5038664;28;20061;-73
2022/08/13 13:14:56;;;;;;;1.35;1.25;;;;;;;;;;5040364;28;20053;-75
2022/08/13 13:17:22;;;;;;;1.30;1.20;;;;;;;;;;5036699;28;20079;-74
2022/08/13 13:19:47;;;;;;;1.50;1.40;;;;;;;;;;5037277;28;20041;-75
2022/08/13 13:22:19;;;;;;;1.70;1.60;;;;;;;;;;5037878;28;20059;-74
2022/08/13 13:24:45;;;;;;;4.47;1.55;;;;;;;;;;5020815;28;20052;-76
2022/08/13 13:27:11;;;;;;;3.20;1.50;;;;;;;;;;5041211;28;20099;-74
2022/08/13 13:29:37;;;;;;;2.15;1.40;;;;;;;;;;5037882;28;20577;-75
2022/08/13 13:32:13;;;;;;;5.47;1.27;;;;;;;;;;5036659;28;20095;-73
2022/08/13 13:34:44;;;;;;;4.68;1.40;;;;;;;;;;5036600;28;20052;-74
2022/08/13 13:37:13;;;;;;;2.92;1.42;;;;;;;;;;5036067;28;20992;-74
2022/08/13 13:39:40;;;;;;;1.63;1.40;;;;;;;;;;5037583;28;20056;-76
2022/08/13 13:42:06;;;;;;;3.55;1.60;;;;;;;;;;5038432;28;20216;-73
2022/08/13 13:44:31;;;;;;;2.60;1.58;;;;;;;;;;5036579;28;20495;-74
2022/08/13 13:46:57;;;;;;;3.72;1.40;;;;;;;;;;5038812;28;20041;-73
2022/08/13 13:49:22;;;;;;;1.40;1.30;;;;;;;;;;5035911;28;20496;-73
2022/08/13 13:51:49;;;;;;;1.65;1.45;;;;;;;;;;5036362;28;20045;-74
2022/08/13 13:54:14;;;;;;;1.40;1.30;;;;;;;;;;5037441;28;20040;-74
2022/08/13 13:56:39;;;;;;;5.53;1.40;;;;;;;;;;5038171;28;20052;-74
2022/08/13 13:59:05;;;;;;;3.33;1.50;;;;;;;;;;5036802;28;20045;-75
2022/08/13 14:01:31;;;;;;;2.35;1.70;;;;;;;;;;5036925;28;20049;-74
2022/08/13 14:03:59;;;;;;;2.28;1.50;;;;;;;;;;5038423;28;20056;-73
2022/08/13 14:06:26;;;;;;;3.33;1.27;;;;;;;;;;5036694;28;20076;-75
2022/08/13 14:08:51;;;;;;;1.80;1.38;;;;;;;;;;5036218;28;20044;-77
2022/08/13 14:11:18;;;;;;;7.00;1.80;;;;;;;;;;5035858;28;20033;-76
2022/08/13 14:13:44;;;;;;;1.92;1.63;;;;;;;;;;5037379;28;20041;-76
2022/08/13 14:16:12;;;;;;;1.60;1.50;;;;;;;;;;5037741;28;20037;-76
2022/08/13 14:18:38;;;;;;;5.10;1.60;;;;;;;;;;5037777;28;20124;-76
2022/08/13 14:21:04;;;;;;;2.00;1.60;;;;;;;;;;5042489;28;20143;-77
2022/08/13 14:23:30;;;;;;;4.72;1.40;;;;;;;;;;5044789;28;20053;-76
2022/08/13 14:25:57;;;;;;;4.55;1.30;;;;;;;;;;5045496;28;20087;-76
2022/08/13 14:28:23;;;;;;;1.60;1.50;;;;;;;;;;5041450;28;20049;-76
2022/08/13 14:30:49;;;;;;;1.48;1.38;;;;;;;;;;5041472;28;20146;-76
2022/08/13 14:33:16;;;;;;;1.50;1.40;;;;;;;;;;5041278;28;20492;-76
2022/08/13 14:35:42;;;;;;;2.85;1.20;;;;;;;;;;5040856;28;20124;-77
2022/08/13 14:38:11;;;;;;;2.55;1.50;;;;;;;;;;5041382;28;21066;-76
2022/08/13 14:40:37;;;;;;;2.92;1.40;;;;;;;;;;5041388;28;20041;-76
2022/08/13 14:43:03;;;;;;;1.50;1.40;;;;;;;;;;5041562;28;20462;-77
2022/08/13 14:45:42;;;;;;;3.22;1.40;;;;;;;;;;5040582;28;20091;-76
2022/08/13 14:48:15;;;;;;;5.63;2.08;;;;;;;;;;5055664;28;20041;-76
2022/08/13 14:50:46;;;;;;;3.58;1.30;;;;;;;;;;5041416;28;20048;-75
2022/08/13 14:53:13;;;;;;;3.58;1.35;;;;;;;;;;5040628;28;20124;-72
2022/08/13 14:55:40;;;;;;;1.58;1.48;;;;;;;;;;5040750;28;20657;-73
2022/08/13 14:58:06;;;;;;;2.80;1.50;;;;;;;;;;5038480;28;20072;-73
2022/08/13 15:00:33;;;;;;;1.70;1.50;;;;;;;;;;5038330;28;20138;-74
2022/08/13 15:03:00;;;;;;;3.42;1.40;;;;;;;;;;5037683;28;20052;-74
2022/08/13 15:05:27;;;;;;;2.17;1.40;;;;;;;;;;5037757;28;20775;-73